Time;durP1;ratioP1;P1;durP2;ratioP2;P2;SDS_P1;SDS_P2;PMS_P1;PMS_P2;Temp;Humidity;BMP_temperature;BMP_pressure;BME280_temperature;BME280_humidity;BME280_pressure;Samples;Min_cycle;Max_cycle;Signal;HPM_P1;HPM_P2
2022/11/14 00:00:22;;;;;;;13.80;9.07;;;6.80;99.90;;;;;;5013988;28;20013;-79
2022/11/14 00:02:49;;;;;;;13.80;10.05;;;6.80;99.90;;;;;;5011350;28;20029;-79
2022/11/14 00:05:18;;;;;;;15.27;10.43;;;6.80;99.90;;;;;;5012987;28;20068;-80
2022/11/14 00:07:46;;;;;;;12.60;9.13;;;6.70;99.90;;;;;;5015404;28;20013;-81
2022/11/14 00:10:16;;;;;;;17.13;10.68;;;6.70;99.90;;;;;;5003123;28;20037;-80
2022/11/14 00:12:42;;;;;;;16.08;11.02;;;6.60;99.90;;;;;;5021210;28;20029;-80
2022/11/14 00:15:10;;;;;;;16.00;11.23;;;6.60;99.90;;;;;;5013481;28;20492;-81
2022/11/14 00:17:39;;;;;;;16.23;10.95;;;6.60;99.90;;;;;;5024741;28;20017;-82
2022/11/14 00:20:09;;;;;;;15.88;10.38;;;6.50;99.90;;;;;;5025603;28;20031;-80
2022/11/14 00:22:39;;;;;;;16.75;11.25;;;6.50;99.90;;;;;;5034305;28;20045;-81
2022/11/14 00:25:06;;;;;;;18.42;11.90;;;6.50;99.90;;;;;;5027308;28;20049;-81
2022/11/14 00:27:38;;;;;;;15.55;10.68;;;6.40;99.90;;;;;;5033238;28;20017;-81
2022/11/14 00:30:05;;;;;;;17.20;11.02;;;6.40;99.90;;;;;;5025994;28;20026;-80
2022/11/14 00:32:31;;;;;;;14.60;9.88;;;6.40;99.90;;;;;;5016570;28;20033;-81
2022/11/14 00:35:00;;;;;;;17.17;11.30;;;6.40;99.90;;;;;;5001792;28;20044;-80
2022/11/14 00:37:31;;;;;;;18.52;11.40;;;6.30;99.90;;;;;;5016186;28;20049;-80
2022/11/14 00:39:57;;;;;;;17.30;11.90;;;6.30;99.90;;;;;;5026510;28;20083;-81
2022/11/14 00:42:23;;;;;;;17.33;11.70;;;6.30;99.90;;;;;;5026980;28;20018;-80
2022/11/14 00:44:51;;;;;;;19.70;12.25;;;6.20;99.90;;;;;;5045869;28;20052;-81
2022/11/14 00:47:20;;;;;;;17.65;12.65;;;6.20;99.90;;;;;;5019244;28;20472;-80
2022/11/14 00:49:48;;;;;;;17.52;11.57;;;6.20;99.90;;;;;;5024146;28;20026;-80
2022/11/14 00:52:17;;;;;;;18.70;12.57;;;6.20;99.90;;;;;;5020636;28;20472;-80
2022/11/14 00:54:48;;;;;;;19.00;12.20;;;6.10;99.90;;;;;;5024831;28;20025;-81
2022/11/14 00:57:16;;;;;;;17.40;11.02;;;6.10;99.90;;;;;;5028294;28;20512;-80
2022/11/14 00:59:52;;;;;;;18.05;11.27;;;6.00;99.90;;;;;;5024317;28;20055;-80
2022/11/14 01:02:27;;;;;;;17.98;11.80;;;6.10;99.90;;;;;;5028981;28;20018;-80
2022/11/14 01:04:59;;;;;;;18.80;11.27;;;6.00;99.90;;;;;;5026837;28;20029;-80
2022/11/14 01:07:30;;;;;;;18.30;11.70;;;5.90;99.90;;;;;;5021690;28;20396;-80
2022/11/14 01:09:58;;;;;;;17.88;11.00;;;5.90;99.90;;;;;;5019441;28;20498;-81
2022/11/14 01:12:29;;;;;;;19.42;11.45;;;5.90;99.90;;;;;;5014223;28;20537;-82
2022/11/14 01:15:02;;;;;;;19.80;12.52;;;5.80;99.90;;;;;;5015240;28;20053;-81
2022/11/14 01:17:31;;;;;;;17.87;12.03;;;5.80;99.90;;;;;;5007751;28;20025;-80
2022/11/14 01:20:00;;;;;;;19.23;12.25;;;5.80;99.90;;;;;;4997220;28;20432;-80
2022/11/14 01:22:34;;;;;;;19.33;12.40;;;5.80;99.90;;;;;;5007284;28;20536;-80
2022/11/14 01:25:15;;;;;;;18.00;11.15;;;5.80;99.90;;;;;;5028916;28;20029;-80
2022/11/14 01:28:02;;;;;;;19.10;12.07;;;5.80;99.90;;;;;;5028176;28;20445;-81
2022/11/14 01:30:38;;;;;;;19.25;12.25;;;5.70;99.90;;;;;;5024596;28;20017;-80
2022/11/14 01:33:15;;;;;;;17.40;11.63;;;5.70;99.90;;;;;;5030424;28;20040;-80
2022/11/14 01:35:46;;;;;;;19.27;12.55;;;5.70;99.90;;;;;;4997548;28;20032;-80
2022/11/14 01:38:19;;;;;;;19.58;12.85;;;5.60;99.90;;;;;;5003559;28;20457;-80
2022/11/14 01:40:47;;;;;;;19.58;13.52;;;5.60;99.90;;;;;;5020536;28;20014;-80
2022/11/14 01:43:33;;;;;;;20.48;12.73;;;5.60;99.90;;;;;;5015709;28;20022;-80
2022/11/14 01:46:11;;;;;;;20.00;12.77;;;5.60;99.90;;;;;;5003610;28;20030;-80
2022/11/14 01:48:51;;;;;;;19.42;12.48;;;5.60;99.90;;;;;;5016321;28;20021;-80
2022/11/14 01:51:44;;;;;;;17.92;11.98;;;5.50;99.90;;;;;;5022517;28;20022;-81
2022/11/14 01:54:26;;;;;;;15.57;9.67;;;5.50;99.90;;;;;;5015603;28;20489;-78
2022/11/14 01:57:00;;;;;;;19.25;12.75;;;5.50;99.90;;;;;;5015359;28;20041;-79
2022/11/14 01:59:43;;;;;;;19.17;11.98;;;5.40;99.90;;;;;;5033801;28;20033;-79
2022/11/14 02:02:23;;;;;;;20.90;13.15;;;5.40;99.90;;;;;;5011656;28;20025;-79
2022/11/14 02:05:13;;;;;;;21.23;12.77;;;5.40;99.90;;;;;;5008364;28;20026;-79
2022/11/14 02:07:40;;;;;;;22.48;13.32;;;5.40;99.90;;;;;;5005818;28;20094;-79
2022/11/14 02:10:16;;;;;;;22.27;14.65;;;5.40;99.90;;;;;;5014677;28;20021;-79
2022/11/14 02:12:42;;;;;;;20.92;14.00;;;5.30;99.90;;;;;;5016340;28;20026;-79
2022/11/14 02:15:08;;;;;;;23.00;13.60;;;5.30;99.90;;;;;;5008521;28;20068;-79
2022/11/14 02:17:34;;;;;;;20.73;13.93;;;5.30;99.90;;;;;;4996737;28;20037;-79
2022/11/14 02:20:10;;;;;;;22.17;14.20;;;5.30;99.90;;;;;;4989362;28;20455;-79
2022/11/14 02:22:36;;;;;;;19.02;12.20;;;5.30;99.90;;;;;;5007442;28;20096;-79
2022/11/14 02:25:04;;;;;;;20.42;13.40;;;5.30;99.90;;;;;;4989575;28;20108;-80
2022/11/14 02:27:31;;;;;;;18.45;11.88;;;5.30;99.90;;;;;;4989582;28;20026;-80
2022/11/14 02:30:07;;;;;;;24.98;15.32;;;5.20;99.90;;;;;;4994322;28;20105;-79
2022/11/14 02:32:33;;;;;;;20.65;13.20;;;5.20;99.90;;;;;;5012200;28;20014;-80
2022/11/14 02:34:58;;;;;;;21.15;12.73;;;5.20;99.90;;;;;;4990626;28;20030;-79
2022/11/14 02:37:24;;;;;;;21.00;13.38;;;5.10;99.90;;;;;;4984567;28;20097;-80
2022/11/14 02:39:53;;;;;;;22.98;14.35;;;5.10;99.90;;;;;;4976983;28;20022;-80
2022/11/14 02:42:24;;;;;;;20.35;12.63;;;5.10;99.90;;;;;;4994309;28;20072;-80
2022/11/14 02:44:52;;;;;;;22.73;14.10;;;5.10;99.90;;;;;;4989375;28;20077;-80
2022/11/14 02:47:18;;;;;;;20.83;12.82;;;5.10;99.90;;;;;;4994320;28;20454;-80
2022/11/14 02:49:44;;;;;;;20.60;13.43;;;5.00;99.90;;;;;;4993679;28;20097;-80
2022/11/14 02:52:09;;;;;;;22.23;12.98;;;5.10;99.90;;;;;;4976320;28;20015;-80
2022/11/14 02:54:35;;;;;;;23.83;14.25;;;5.00;99.90;;;;;;5010083;28;20045;-80
2022/11/14 02:57:00;;;;;;;23.35;14.63;;;5.00;99.90;;;;;;5013438;28;20065;-79
2022/11/14 02:59:26;;;;;;;22.55;13.68;;;5.00;99.90;;;;;;5012642;28;20017;-79
2022/11/14 03:01:52;;;;;;;22.95;13.48;;;5.00;99.90;;;;;;4995470;28;20362;-80
2022/11/14 03:04:17;;;;;;;23.95;14.38;;;4.90;99.90;;;;;;4995054;28;20017;-80
2022/11/14 03:06:43;;;;;;;20.05;13.23;;;5.00;99.90;;;;;;5011566;28;20147;-79
2022/11/14 03:09:09;;;;;;;20.70;13.73;;;4.90;99.90;;;;;;5003751;28;20018;-79
2022/11/14 03:11:34;;;;;;;22.33;13.43;;;4.90;99.90;;;;;;5009060;28;20060;-79
2022/11/14 03:14:00;;;;;;;21.23;13.18;;;4.90;99.90;;;;;;4986332;28;20026;-80
2022/11/14 03:16:25;;;;;;;22.38;12.85;;;4.90;99.90;;;;;;5017666;28;20045;-79
2022/11/14 03:18:51;;;;;;;21.65;13.80;;;4.80;99.90;;;;;;5022536;28;20014;-79
2022/11/14 03:21:22;;;;;;;22.58;13.80;;;4.80;99.90;;;;;;5027695;28;20018;-80
2022/11/14 03:23:51;;;;;;;23.70;13.77;;;4.80;99.90;;;;;;5031542;28;20022;-79
2022/11/14 03:26:20;;;;;;;21.10;13.20;;;4.80;99.90;;;;;;5031714;28;20430;-79
2022/11/14 03:28:54;;;;;;;22.45;13.23;;;4.80;99.90;;;;;;5031538;28;20021;-80
2022/11/14 03:31:24;;;;;;;21.20;13.18;;;4.80;99.90;;;;;;5032180;28;20056;-80
2022/11/14 03:33:58;;;;;;;22.55;14.05;;;4.70;99.90;;;;;;5019048;28;20116;-79
2022/11/14 03:36:27;;;;;;;21.27;13.05;;;4.70;99.90;;;;;;5024020;28;20053;-80
2022/11/14 03:38:56;;;;;;;22.40;13.63;;;4.70;99.90;;;;;;5035337;28;20029;-80
2022/11/14 03:41:22;;;;;;;21.63;13.00;;;4.70;99.90;;;;;;5033915;28;20013;-80
2022/11/14 03:43:51;;;;;;;21.50;12.48;;;4.70;99.90;;;;;;5034787;28;20009;-80
2022/11/14 03:46:22;;;;;;;21.92;12.90;;;4.70;99.90;;;;;;5015640;28;20056;-79
2022/11/14 03:48:50;;;;;;;20.13;12.13;;;4.70;99.90;;;;;;5030054;28;20361;-80
2022/11/14 03:51:21;;;;;;;19.98;12.00;;;4.60;99.90;;;;;;5034998;28;20025;-79
2022/11/14 03:53:53;;;;;;;20.58;11.80;;;4.60;99.90;;;;;;5033744;28;20018;-80
2022/11/14 03:56:25;;;;;;;21.85;14.40;;;4.60;99.90;;;;;;5035840;28;20381;-80
2022/11/14 03:58:53;;;;;;;23.40;13.82;;;4.60;99.90;;;;;;5034810;28;20013;-80
2022/11/14 04:01:26;;;;;;;24.17;13.95;;;4.60;99.90;;;;;;5030086;28;20051;-79
2022/11/14 04:03:54;;;;;;;22.73;12.88;;;4.50;99.90;;;;;;5028581;28;20025;-80
2022/11/14 04:06:25;;;;;;;22.52;13.02;;;4.50;99.90;;;;;;5029124;28;20025;-79
2022/11/14 04:08:58;;;;;;;21.60;12.90;;;4.50;99.90;;;;;;5034747;28;20024;-79
2022/11/14 04:11:24;;;;;;;22.80;13.50;;;4.50;99.90;;;;;;5033206;28;20022;-79
2022/11/14 04:13:53;;;;;;;24.70;13.25;;;4.50;99.90;;;;;;5033733;28;20014;-79
2022/11/14 04:16:18;;;;;;;20.60;12.25;;;4.50;99.90;;;;;;5033475;28;20050;-79
2022/11/14 04:18:44;;;;;;;20.60;13.02;;;4.50;99.90;;;;;;5017297;28;20025;-79
2022/11/14 04:21:10;;;;;;;20.67;12.55;;;4.50;99.90;;;;;;5034785;28;20333;-79
2022/11/14 04:23:38;;;;;;;21.45;12.35;;;4.40;99.90;;;;;;5016662;28;20030;-79
2022/11/14 04:26:03;;;;;;;19.95;12.70;;;4.40;99.90;;;;;;5016799;28;20025;-79
2022/11/14 04:28:29;;;;;;;20.70;12.65;;;4.40;99.90;;;;;;5016659;28;20072;-80
2022/11/14 04:30:55;;;;;;;20.38;12.70;;;4.40;99.90;;;;;;5004841;28;20076;-79
2022/11/14 04:33:20;;;;;;;21.63;12.02;;;4.40;99.90;;;;;;5017077;28;20036;-80
2022/11/14 04:35:47;;;;;;;21.98;13.57;;;4.40;99.90;;;;;;5016090;28;20472;-79
2022/11/14 04:38:15;;;;;;;19.98;11.50;;;4.30;99.90;;;;;;5034990;28;20022;-79
2022/11/14 04:40:50;;;;;;;21.55;12.32;;;4.30;99.90;;;;;;5015763;28;20018;-79
2022/11/14 04:43:18;;;;;;;22.33;13.15;;;4.30;99.90;;;;;;5017718;28;20056;-79
2022/11/14 04:45:43;;;;;;;22.13;13.35;;;4.30;99.90;;;;;;5001527;28;20121;-82
2022/11/14 04:48:09;;;;;;;21.15;13.02;;;4.30;99.90;;;;;;4998318;28;20459;-80
2022/11/14 04:50:35;;;;;;;20.67;12.00;;;4.20;99.90;;;;;;5013961;28;20530;-81
2022/11/14 04:53:00;;;;;;;20.42;12.13;;;4.30;99.90;;;;;;4997809;28;20018;-81
2022/11/14 04:55:26;;;;;;;20.27;12.07;;;4.20;99.90;;;;;;5013592;28;20148;-80
2022/11/14 04:57:57;;;;;;;19.33;11.50;;;4.30;99.90;;;;;;5035447;28;20079;-80
2022/11/14 05:00:24;;;;;;;19.58;11.75;;;4.20;99.90;;;;;;4988112;28;20017;-80
2022/11/14 05:02:50;;;;;;;20.08;11.63;;;4.20;99.90;;;;;;5017101;28;20051;-80
2022/11/14 05:05:16;;;;;;;19.52;11.60;;;4.20;99.90;;;;;;5016774;28;20033;-80
2022/11/14 05:07:42;;;;;;;19.90;11.73;;;4.20;99.90;;;;;;5017391;28;20025;-79
2022/11/14 05:10:11;;;;;;;21.02;12.73;;;4.20;99.90;;;;;;5000363;28;20029;-80
2022/11/14 05:12:36;;;;;;;20.20;12.50;;;4.20;99.90;;;;;;4997874;28;20018;-80
2022/11/14 05:15:02;;;;;;;23.60;12.82;;;4.10;99.90;;;;;;5013052;28;20049;-80
2022/11/14 05:17:28;;;;;;;21.38;11.38;;;4.10;99.90;;;;;;5024416;28;20018;-80
2022/11/14 05:19:53;;;;;;;19.45;12.18;;;4.10;99.90;;;;;;5020231;28;20018;-80
2022/11/14 05:22:31;;;;;;;19.95;11.70;;;4.10;99.90;;;;;;5034974;28;20021;-80
2022/11/14 05:25:02;;;;;;;22.52;12.13;;;4.10;99.90;;;;;;4996895;28;20034;-80
2022/11/14 05:27:33;;;;;;;20.33;11.63;;;4.00;99.90;;;;;;5032893;28;20025;-80
2022/11/14 05:29:59;;;;;;;22.30;12.05;;;4.00;99.90;;;;;;5033144;28;20009;-80
2022/11/14 05:32:25;;;;;;;21.02;12.35;;;4.00;99.90;;;;;;5019667;28;20018;-80
2022/11/14 05:34:50;;;;;;;19.33;12.05;;;4.00;99.90;;;;;;5013482;28;20029;-81
2022/11/14 05:37:22;;;;;;;22.63;11.77;;;4.00;99.90;;;;;;5013517;28;20030;-80
2022/11/14 05:39:48;;;;;;;23.20;12.63;;;4.00;99.90;;;;;;5021015;28;20021;-80
2022/11/14 05:42:16;;;;;;;20.35;11.80;;;3.90;99.90;;;;;;5031656;28;20411;-80
2022/11/14 05:44:42;;;;;;;20.48;11.25;;;3.90;99.90;;;;;;5025197;28;20358;-81
2022/11/14 05:47:07;;;;;;;22.98;12.77;;;3.90;99.90;;;;;;5027394;28;20025;-80
2022/11/14 05:49:33;;;;;;;21.45;12.25;;;3.90;99.90;;;;;;5033186;28;20029;-80
2022/11/14 05:51:59;;;;;;;20.75;12.45;;;3.90;99.90;;;;;;5032200;28;20056;-80
2022/11/14 05:54:24;;;;;;;20.55;12.73;;;3.90;99.90;;;;;;5032553;28;20017;-80
2022/11/14 05:56:50;;;;;;;20.58;11.98;;;3.90;99.90;;;;;;5032771;28;20025;-80
2022/11/14 05:59:15;;;;;;;20.30;12.27;;;3.90;99.90;;;;;;5031902;28;20384;-80
2022/11/14 06:01:41;;;;;;;20.17;11.48;;;3.90;99.90;;;;;;5019122;28;20025;-81
2022/11/14 06:04:07;;;;;;;19.48;11.68;;;3.90;99.90;;;;;;5032033;28;20022;-80
2022/11/14 06:06:32;;;;;;;23.45;12.63;;;3.90;99.90;;;;;;5031742;28;20025;-80
2022/11/14 06:08:58;;;;;;;18.98;11.82;;;3.90;99.90;;;;;;5031819;28;20067;-80
2022/11/14 06:11:24;;;;;;;18.75;11.73;;;3.80;99.90;;;;;;5032278;28;20014;-80
2022/11/14 06:13:49;;;;;;;19.90;11.73;;;3.90;99.90;;;;;;5031547;28;20022;-79
2022/11/14 06:16:18;;;;;;;19.17;11.85;;;3.90;99.90;;;;;;5018125;28;20500;-80
2022/11/14 06:18:46;;;;;;;19.55;11.57;;;3.90;99.90;;;;;;5031943;28;20018;-80
2022/11/14 06:21:23;;;;;;;20.00;12.15;;;3.90;99.90;;;;;;5029503;28;20109;-79
2022/11/14 06:23:49;;;;;;;20.45;11.82;;;3.90;99.90;;;;;;5015439;28;20120;-80
2022/11/14 06:26:25;;;;;;;20.85;12.25;;;3.90;99.90;;;;;;5028657;28;20018;-79
2022/11/14 06:28:54;;;;;;;19.85;11.98;;;3.90;99.90;;;;;;5031364;28;20041;-79
2022/11/14 06:31:21;;;;;;;20.88;12.10;;;3.80;99.90;;;;;;5029190;28;20014;-80
2022/11/14 06:33:46;;;;;;;20.77;11.43;;;3.80;99.90;;;;;;5015130;28;20044;-79
2022/11/14 06:36:16;;;;;;;19.90;11.82;;;3.80;99.90;;;;;;5032597;28;20025;-78
2022/11/14 06:38:42;;;;;;;19.73;11.68;;;3.80;99.90;;;;;;5028040;28;20018;-79
2022/11/14 06:41:16;;;;;;;21.55;12.02;;;3.80;99.90;;;;;;5029440;28;20021;-79
2022/11/14 06:43:46;;;;;;;21.65;12.10;;;3.80;99.90;;;;;;5031254;28;20040;-80
2022/11/14 06:46:15;;;;;;;20.77;11.15;;;3.80;99.90;;;;;;5025859;28;20062;-80
2022/11/14 06:48:43;;;;;;;21.90;12.75;;;3.80;99.90;;;;;;5029259;28;20025;-79
2022/11/14 06:51:11;;;;;;;20.50;12.02;;;3.80;99.90;;;;;;5028711;28;20079;-80
2022/11/14 06:53:38;;;;;;;20.58;11.57;;;3.70;99.90;;;;;;5030746;28;20032;-81
2022/11/14 06:56:24;;;;;;;20.70;12.18;;;3.70;99.90;;;;;;5013617;28;20041;-79
2022/11/14 06:58:50;;;;;;;18.42;10.77;;;3.80;99.90;;;;;;5046662;28;20350;-79
2022/11/14 07:01:21;;;;;;;16.67;10.65;;;3.80;99.90;;;;;;5031788;28;20041;-79
2022/11/14 07:03:47;;;;;;;19.63;11.00;;;3.80;99.90;;;;;;5015700;28;20026;-80
2022/11/14 07:06:19;;;;;;;20.70;11.68;;;3.80;99.90;;;;;;5025103;28;20453;-80
2022/11/14 07:08:45;;;;;;;19.83;11.18;;;3.80;99.90;;;;;;5022425;28;20021;-80
2022/11/14 07:11:30;;;;;;;19.83;10.82;;;3.80;99.90;;;;;;5025221;28;20075;-79
2022/11/14 07:14:05;;;;;;;20.20;10.70;;;3.70;99.90;;;;;;5018089;28;20037;-79
2022/11/14 07:16:35;;;;;;;19.00;10.80;;;3.80;99.90;;;;;;5031658;28;20061;-81
2022/11/14 07:19:11;;;;;;;19.98;12.10;;;3.80;99.90;;;;;;5036884;28;20377;-79
2022/11/14 07:21:37;;;;;;;21.77;12.48;;;3.80;99.90;;;;;;5019196;28;20080;-79
2022/11/14 07:24:03;;;;;;;18.48;10.73;;;3.80;99.90;;;;;;5027767;28;20026;-79
2022/11/14 07:26:29;;;;;;;20.13;11.40;;;3.80;99.90;;;;;;5021332;28;20034;-79
2022/11/14 07:28:55;;;;;;;19.42;11.25;;;3.80;99.90;;;;;;5017396;28;20449;-80
2022/11/14 07:31:21;;;;;;;18.23;10.18;;;3.90;99.90;;;;;;5035733;28;20021;-79
2022/11/14 07:33:47;;;;;;;21.75;11.02;;;3.90;99.90;;;;;;5024677;28;20072;-80
2022/11/14 07:36:15;;;;;;;19.42;10.32;;;3.90;99.90;;;;;;5032590;28;20390;-80
2022/11/14 07:38:41;;;;;;;18.58;10.77;;;3.90;99.90;;;;;;5036000;28;20025;-81
2022/11/14 07:41:09;;;;;;;18.20;10.98;;;3.90;99.90;;;;;;5031808;28;20036;-79
2022/11/14 07:43:36;;;;;;;19.77;10.77;;;4.00;99.90;;;;;;5035003;28;20029;-79
2022/11/14 07:46:15;;;;;;;21.08;11.27;;;4.00;99.90;;;;;;5016716;28;20100;-80
2022/11/14 07:48:42;;;;;;;21.25;10.95;;;4.00;99.90;;;;;;5015944;28;20036;-79
2022/11/14 07:51:14;;;;;;;16.65;10.70;;;4.10;99.90;;;;;;5015618;28;20036;-79
2022/11/14 07:53:39;;;;;;;18.02;10.57;;;4.10;99.90;;;;;;5017193;28;20018;-79
2022/11/14 07:56:10;;;;;;;18.95;10.93;;;4.10;99.90;;;;;;5027601;28;20030;-79
2022/11/14 07:58:38;;;;;;;18.52;10.80;;;4.10;99.90;;;;;;5028777;28;20484;-79
2022/11/14 08:01:06;;;;;;;18.13;10.65;;;4.20;99.90;;;;;;5024730;28;20029;-79
2022/11/14 08:03:38;;;;;;;20.08;10.75;;;4.20;99.90;;;;;;5019288;28;20120;-79
2022/11/14 08:06:13;;;;;;;19.23;10.38;;;4.20;99.90;;;;;;5022249;28;20065;-79
2022/11/14 08:08:38;;;;;;;17.70;10.55;;;4.30;99.90;;;;;;5022053;28;20116;-80
2022/11/14 08:11:04;;;;;;;17.35;10.57;;;4.30;99.90;;;;;;5026667;28;20501;-79
2022/11/14 08:13:33;;;;;;;17.95;10.27;;;4.30;99.90;;;;;;5029341;28;20014;-79
2022/11/14 08:16:07;;;;;;;17.70;10.77;;;4.40;99.90;;;;;;5024374;28;20083;-79
2022/11/14 08:18:34;;;;;;;17.85;10.95;;;4.50;99.90;;;;;;5021566;28;20097;-79
2022/11/14 08:21:04;;;;;;;18.88;10.50;;;4.50;99.90;;;;;;5033285;28;20032;-80
2022/11/14 08:23:30;;;;;;;19.13;10.88;;;4.60;99.90;;;;;;5020317;28;20030;-80
2022/11/14 08:25:58;;;;;;;18.58;11.00;;;4.60;99.90;;;;;;5026056;28;20056;-80
2022/11/14 08:28:26;;;;;;;17.85;10.68;;;4.70;99.90;;;;;;5026387;28;20029;-80
2022/11/14 08:30:57;;;;;;;17.15;10.27;;;4.80;99.90;;;;;;5028080;28;20111;-79
2022/11/14 08:33:23;;;;;;;18.85;10.68;;;4.90;99.90;;;;;;5027148;28;20164;-79
2022/11/14 08:35:49;;;;;;;17.60;10.48;;;5.00;99.90;;;;;;5033586;28;20116;-80
2022/11/14 08:38:14;;;;;;;17.35;10.18;;;5.10;99.90;;;;;;5026957;28;20041;-80
2022/11/14 08:40:40;;;;;;;15.45;9.68;;;5.20;99.90;;;;;;5027380;28;20018;-80
2022/11/14 08:43:06;;;;;;;15.90;9.43;;;5.30;99.90;;;;;;5045943;28;20029;-79
2022/11/14 08:45:32;;;;;;;15.63;9.55;;;5.40;99.90;;;;;;5033228;28;20059;-79
2022/11/14 08:47:58;;;;;;;15.93;9.52;;;5.60;99.90;;;;;;5034446;28;20065;-80
2022/11/14 08:50:24;;;;;;;17.00;9.25;;;6.50;99.90;;;;;;5033243;28;20075;-80
2022/11/14 08:52:53;;;;;;;12.13;7.93;;;8.10;99.90;;;;;;5034054;28;20473;-80
2022/11/14 08:55:20;;;;;;;14.63;9.50;;;9.70;99.90;;;;;;5032001;28;20033;-80
2022/11/14 08:57:46;;;;;;;15.02;9.45;;;11.00;99.90;;;;;;5033515;28;20491;-80
2022/11/14 09:00:13;;;;;;;13.68;9.10;;;11.90;99.90;;;;;;5033799;28;20101;-79
2022/11/14 09:02:39;;;;;;;14.70;10.13;;;12.80;99.90;;;;;;5032375;28;20504;-79
2022/11/14 09:05:05;;;;;;;14.38;9.63;;;13.60;99.90;;;;;;5031175;28;20026;-79
2022/11/14 09:07:31;;;;;;;12.38;9.13;;;14.10;99.90;;;;;;5033651;28;20029;-80
2022/11/14 09:09:57;;;;;;;13.80;9.45;;;14.70;99.90;;;;;;5034249;28;20501;-80
2022/11/14 09:12:23;;;;;;;13.88;9.32;;;15.10;99.90;;;;;;5031855;28;20029;-79
2022/11/14 09:14:49;;;;;;;12.85;9.68;;;15.50;99.90;;;;;;5034130;28;20096;-80
2022/11/14 09:20:00;;;;;;;13.15;8.90;;;16.20;99.90;;;;;;5033976;28;20040;-80
2022/11/14 09:22:26;;;;;;;12.18;8.43;;;16.60;99.90;;;;;;5033645;28;20025;-80
2022/11/14 09:24:52;;;;;;;11.40;7.88;;;16.90;99.90;;;;;;5031366;28;20018;-80
2022/11/14 09:27:18;;;;;;;10.73;8.65;;;17.20;99.90;;;;;;5030939;28;20083;-81
2022/11/14 09:29:43;;;;;;;12.80;9.80;;;17.30;99.90;;;;;;5031992;28;20097;-80
2022/11/14 09:32:09;;;;;;;11.48;8.25;;;17.40;99.90;;;;;;5031290;28;20021;-81
2022/11/14 09:34:36;;;;;;;12.85;8.80;;;17.60;99.90;;;;;;5031740;28;20041;-80
2022/11/14 09:37:05;;;;;;;11.52;8.75;;;17.80;99.90;;;;;;5032745;28;20034;-80
2022/11/14 09:39:36;;;;;;;13.15;9.07;;;18.00;99.90;;;;;;5031644;28;20083;-80
2022/11/14 09:42:22;;;;;;;12.60;8.35;;;18.20;99.90;;;;;;5041934;28;20044;-80
2022/11/14 09:45:19;;;;;;;11.38;8.85;;;18.30;99.90;;;;;;5011509;28;20034;-80
2022/11/14 09:48:10;;;;;;;11.27;8.32;;;18.30;99.90;;;;;;5025480;28;20022;-81
2022/11/14 09:51:05;;;;;;;10.40;8.05;;;18.40;99.90;;;;;;5027101;28;20092;-81
2022/11/14 09:54:08;;;;;;;10.18;7.93;;;18.60;99.90;;;;;;5029417;28;20087;-80
2022/11/14 09:56:37;;;;;;;10.30;7.85;;;18.70;99.90;;;;;;5008388;28;20489;-80
2022/11/14 09:59:10;;;;;;;12.07;7.93;;;18.60;99.90;;;;;;5030057;28;20460;-80
2022/11/14 10:01:55;;;;;;;9.60;7.63;;;18.80;99.90;;;;;;5028930;28;20028;-81
2022/11/14 10:04:24;;;;;;;11.32;8.45;;;18.90;99.90;;;;;;5027349;28;20021;-80
2022/11/14 10:07:12;;;;;;;11.73;8.35;;;19.00;99.90;;;;;;5028733;28;20030;-80
2022/11/14 10:10:04;;;;;;;9.68;8.18;;;19.30;99.90;;;;;;5029583;28;20047;-80
2022/11/14 10:13:03;;;;;;;10.65;8.13;;;19.50;99.90;;;;;;5022568;28;20083;-83
2022/11/14 10:15:55;;;;;;;12.23;8.82;;;19.70;99.90;;;;;;4977721;28;20565;-80
2022/11/14 10:18:39;;;;;;;10.57;8.30;;;19.60;99.90;;;;;;5028024;28;20073;-82
2022/11/14 10:21:28;;;;;;;10.18;7.55;;;19.70;99.90;;;;;;5027215;28;20063;-81
2022/11/14 10:24:17;;;;;;;9.95;7.63;;;19.90;99.90;;;;;;5018997;28;20494;-83
2022/11/14 10:27:01;;;;;;;10.68;8.02;;;20.00;99.90;;;;;;5030875;28;20021;-81
2022/11/14 10:29:37;;;;;;;10.77;8.43;;;20.00;99.90;;;;;;5026496;28;20060;-80
2022/11/14 10:32:32;;;;;;;11.40;8.75;;;20.00;99.90;;;;;;5022836;28;20084;-80
2022/11/14 10:35:07;;;;;;;10.68;8.32;;;19.80;99.90;;;;;;5013034;28;20029;-79
2022/11/14 10:37:42;;;;;;;13.35;9.30;;;19.60;99.90;;;;;;5031251;28;20022;-80
2022/11/14 10:40:25;;;;;;;10.70;7.70;;;19.40;99.90;;;;;;5026972;28;20488;-82
2022/11/14 10:43:14;;;;;;;12.60;9.23;;;19.50;99.90;;;;;;5025002;28;20057;-80
2022/11/14 10:46:03;;;;;;;10.55;8.25;;;19.30;99.90;;;;;;5024447;28;20037;-80
2022/11/14 10:48:38;;;;;;;12.00;9.45;;;19.40;99.90;;;;;;5028870;28;20063;-80
2022/11/14 10:51:20;;;;;;;13.68;10.00;;;19.20;99.90;;;;;;5030213;28;20079;-80
2022/11/14 10:53:51;;;;;;;10.47;8.57;;;19.00;99.90;;;;;;5030456;28;20480;-82
2022/11/14 10:56:17;;;;;;;11.73;8.88;;;19.00;99.90;;;;;;5028678;28;20056;-79
2022/11/14 10:58:43;;;;;;;14.60;11.05;;;19.10;99.90;;;;;;5021435;28;20029;-82
2022/11/14 11:01:35;;;;;;;12.15;9.43;;;19.10;99.90;;;;;;5022285;28;20352;-80
2022/11/14 11:04:27;;;;;;;10.45;8.40;;;18.80;99.90;;;;;;5025069;28;20022;-81
2022/11/14 11:06:58;;;;;;;11.07;8.93;;;19.00;99.90;;;;;;5025317;28;20099;-83
2022/11/14 11:12:17;;;;;;;11.20;9.48;;;19.10;99.90;;;;;;5024813;28;20041;-82
2022/11/14 11:15:08;;;;;;;11.52;8.75;;;19.00;99.90;;;;;;5022779;28;20124;-80
2022/11/14 11:17:34;;;;;;;11.00;7.90;;;19.20;99.90;;;;;;5021656;28;20037;-84
2022/11/14 11:20:21;;;;;;;10.18;7.88;;;19.70;99.90;;;;;;5021543;28;20017;-82
2022/11/14 11:23:00;;;;;;;11.70;8.10;;;20.20;99.90;;;;;;5023602;28;20029;-82
2022/11/14 11:25:29;;;;;;;11.13;8.55;;;20.40;99.90;;;;;;5019635;28;20985;-82
2022/11/14 11:28:14;;;;;;;12.43;10.93;;;20.60;99.90;;;;;;5017679;28;20041;-82
2022/11/14 11:30:55;;;;;;;16.92;12.95;;;20.20;98.60;;;;;;5018118;28;20408;-81
2022/11/14 11:33:20;;;;;;;15.43;12.57;;;18.30;99.70;;;;;;5023131;28;20025;-83
2022/11/14 11:35:51;;;;;;;14.27;11.10;;;16.20;99.90;;;;;;5024165;28;20040;-82
2022/11/14 11:38:23;;;;;;;14.80;11.50;;;14.90;99.90;;;;;;5025077;28;20354;-81
2022/11/14 11:40:57;;;;;;;16.33;13.65;;;13.90;99.90;;;;;;5007381;28;20029;-81
2022/11/14 11:43:37;;;;;;;16.40;13.27;;;13.10;99.90;;;;;;5038776;28;20026;-83
2022/11/14 11:46:11;;;;;;;17.02;13.93;;;12.50;99.90;;;;;;5023618;28;20388;-81
2022/11/14 11:48:38;;;;;;;16.30;13.13;;;12.20;99.90;;;;;;5022230;28;20017;-85
2022/11/14 11:51:15;;;;;;;18.33;14.45;;;11.90;99.90;;;;;;5003925;28;20487;-83
2022/11/14 11:54:18;;;;;;;20.27;15.95;;;11.60;99.90;;;;;;5029145;28;20092;-85
2022/11/14 11:56:50;;;;;;;19.55;14.88;;;11.30;99.90;;;;;;4996752;28;20115;-82
2022/11/14 11:59:36;;;;;;;21.20;15.65;;;11.00;99.90;;;;;;5025986;28;20021;-82
2022/11/14 12:02:52;;;;;;;20.38;16.27;;;10.80;99.90;;;;;;5008823;28;20124;-83
2022/11/14 12:06:03;;;;;;;23.40;16.23;;;10.60;99.90;;;;;;5026230;28;20582;-82
2022/11/14 12:08:59;;;;;;;21.35;15.25;;;10.40;99.90;;;;;;5025078;28;20443;-82
2022/11/14 12:11:30;;;;;;;22.80;16.38;;;10.30;99.90;;;;;;5020990;28;20064;-84
2022/11/14 12:14:13;;;;;;;27.30;19.25;;;10.20;99.90;;;;;;5027985;28;20455;-81
2022/11/14 12:17:13;;;;;;;24.02;18.20;;;10.10;99.90;;;;;;5027264;28;20160;-84
2022/11/14 12:20:12;;;;;;;22.52;16.52;;;10.00;99.90;;;;;;5025959;28;20025;-81
2022/11/14 12:22:56;;;;;;;25.25;18.33;;;9.90;99.90;;;;;;4998072;28;20025;-82
2022/11/14 12:25:45;;;;;;;25.05;18.63;;;9.80;99.90;;;;;;5029896;28;20056;-81
2022/11/14 12:28:37;;;;;;;23.00;17.17;;;9.80;99.90;;;;;;5003031;28;20030;-81
2022/11/14 12:31:15;;;;;;;24.30;17.20;;;9.90;99.90;;;;;;5010958;28;20036;-80
2022/11/14 12:34:30;;;;;;;23.15;16.65;;;9.90;99.90;;;;;;5010662;28;20022;-82
2022/11/14 12:36:57;;;;;;;24.85;17.98;;;9.90;99.90;;;;;;5026344;28;20505;-83
2022/11/14 12:39:36;;;;;;;24.30;18.67;;;9.80;99.90;;;;;;5027139;28;20030;-80
2022/11/14 12:42:13;;;;;;;27.02;19.92;;;9.80;99.90;;;;;;5008655;28;20022;-81
2022/11/14 12:44:40;;;;;;;25.33;18.70;;;9.80;99.90;;;;;;5010542;28;20664;-81
2022/11/14 12:47:06;;;;;;;23.95;17.27;;;9.70;99.90;;;;;;5002750;28;20474;-82
2022/11/14 12:49:57;;;;;;;22.40;16.70;;;9.70;99.90;;;;;;4996526;28;20044;-84
2022/11/14 12:52:44;;;;;;;20.95;15.73;;;9.80;99.90;;;;;;5000927;28;20099;-83
2022/11/14 12:55:32;;;;;;;21.27;14.95;;;9.80;99.90;;;;;;5020379;28;20441;-82
2022/11/14 12:58:10;;;;;;;19.98;14.65;;;9.90;99.90;;;;;;5017225;28;20104;-84
2022/11/14 13:00:45;;;;;;;20.27;14.80;;;9.90;99.90;;;;;;5021913;28;20494;-85
2022/11/14 13:03:29;;;;;;;20.10;14.60;;;9.90;99.90;;;;;;5009067;28;20021;-83
2022/11/14 13:06:16;;;;;;;17.15;12.70;;;9.80;99.90;;;;;;5006042;28;20088;-83